Howes, South Dakota
Current Conditions -  °F | °C
As of 9:55 PM on Monday 20 Oct 2014 (Local Time) from KPHP Reporting Station
Clear Clear  
Wind Chill: 61°   Ceiling: Unl
Heat Index: 61°   Visibility: 10mi
Dew Point: 39°   Wind: 3mph
Humidity: 44%   Direction: NA
Pressure: 29.89"   Gusts: NA
Location:  44.62°N, 102.05°W
Report Text: KPHP 210355Z AUTO VRB03KT 10SM CLR 16/04 A2989 RMK AO2 SLP113 T01610039
Loading
Personal Weather Stations






























Interactive Weather Map
Tropical Storm Tracking
New forecast layout! Learn more

10-Day Weather Forecast

Advertisements
Track Severe Weather on mobile